createdAt,value
2023-03-13T00:02:09.726Z,8.85
2023-03-13T00:07:16.969Z,8.90
2023-03-13T00:12:24.633Z,8.84
2023-03-13T00:17:30.235Z,8.80
2023-03-13T00:22:35.342Z,8.91
2023-03-13T00:27:44.655Z,8.94
2023-03-13T00:32:52.799Z,8.94
2023-03-13T00:37:57.915Z,8.92
2023-03-13T00:43:08.316Z,8.91
2023-03-13T00:48:16.394Z,9.03
2023-03-13T00:53:22.109Z,9.02
2023-03-13T00:58:31.881Z,9.08
2023-03-13T01:03:36.860Z,9.08
2023-03-13T01:08:42.211Z,9.01
2023-03-13T01:13:50.553Z,9.12
2023-03-13T01:18:59.686Z,9.16
2023-03-13T01:24:04.971Z,9.10
2023-03-13T01:29:12.781Z,9.10
2023-03-13T01:34:17.872Z,9.17
2023-03-13T01:39:22.824Z,9.15
2023-03-13T01:44:30.724Z,9.24
2023-03-13T01:49:38.234Z,9.15
2023-03-13T01:54:54.067Z,9.20
2023-03-13T02:00:10.490Z,9.27
2023-03-13T02:05:20.079Z,9.28
2023-03-13T02:10:27.803Z,9.20
2023-03-13T02:15:39.382Z,9.23
2023-03-13T02:20:46.740Z,9.16
2023-03-13T02:25:56.149Z,9.11
2023-03-13T02:31:08.520Z,9.05
2023-03-13T02:36:17.700Z,8.93
2023-03-13T02:41:26.911Z,8.84
2023-03-13T02:46:33.843Z,8.68
2023-03-13T02:51:45.120Z,8.63
2023-03-13T02:56:58.909Z,8.65
2023-03-13T03:02:04.498Z,8.76
2023-03-13T03:07:09.624Z,8.78
2023-03-13T03:12:17.601Z,8.88
2023-03-13T03:17:24.946Z,8.92
2023-03-13T03:22:31.763Z,8.90
2023-03-13T03:27:42.030Z,9.00
2023-03-13T03:32:47.564Z,8.96
2023-03-13T03:37:52.699Z,9.00
2023-03-13T03:43:00.451Z,9.05
2023-03-13T03:48:05.902Z,9.07
2023-03-13T03:53:11.420Z,9.07
2023-03-13T03:58:19.246Z,9.01
2023-03-13T04:03:44.509Z,9.12
2023-03-13T04:08:53.594Z,9.11
2023-03-13T04:14:05.219Z,9.06
2023-03-13T04:19:11.346Z,9.14
2023-03-13T04:24:16.555Z,9.07
2023-03-13T04:29:25.764Z,9.12
2023-03-13T04:34:47.412Z,9.07
2023-03-13T04:40:09.556Z,9.12
2023-03-13T04:45:32.984Z,9.15
2023-03-13T04:50:56.792Z,9.17
2023-03-13T04:56:41.482Z,9.22
2023-03-13T05:02:16.294Z,9.17
2023-03-13T05:07:42.052Z,9.16
2023-03-13T05:13:09.561Z,9.18
2023-03-13T05:18:36.251Z,9.14
2023-03-13T05:24:04.410Z,9.19
2023-03-13T05:29:39.408Z,9.24
2023-03-13T05:34:57.315Z,8.80
2023-03-13T05:40:19.066Z,8.51
2023-03-13T05:45:40.155Z,8.43
2023-03-13T05:51:07.086Z,8.57
2023-03-13T05:56:12.008Z,8.68
2023-03-13T06:01:22.854Z,8.59
2023-03-13T06:06:56.688Z,8.70
2023-03-13T06:12:02.909Z,8.78
2023-03-13T06:17:12.870Z,8.87
2023-03-13T06:22:28.629Z,8.78
2023-03-13T06:27:38.990Z,8.68
2023-03-13T06:32:44.977Z,8.83
2023-03-13T06:37:55.198Z,8.80
2023-03-13T06:43:02.426Z,8.98
2023-03-13T06:48:08.233Z,9.15
2023-03-13T06:53:19.639Z,9.11
2023-03-13T06:58:32.252Z,9.04
2023-03-13T07:03:38.811Z,9.25
2023-03-13T07:08:47.256Z,9.49
2023-03-13T07:13:53.941Z,9.44
2023-03-13T07:19:00.151Z,9.66
2023-03-13T07:24:09.935Z,9.58
2023-03-13T07:29:15.434Z,9.77
2023-03-13T07:34:20.655Z,9.95
2023-03-13T07:39:29.201Z,9.86
2023-03-13T07:44:39.142Z,9.76
2023-03-13T07:49:46.498Z,9.64
2023-03-13T07:54:54.348Z,9.60
2023-03-13T08:00:01.439Z,9.62
2023-03-13T08:05:07.760Z,9.22
2023-03-13T08:10:18.089Z,9.20
2023-03-13T08:15:28.984Z,9.35
2023-03-13T08:20:38.072Z,9.56
2023-03-13T08:25:45.681Z,9.48
2023-03-13T08:30:51.242Z,9.37
2023-03-13T08:35:57.382Z,9.54
2023-03-13T08:41:07.181Z,9.47
2023-03-13T08:46:20.039Z,9.60
2023-03-13T08:51:28.110Z,9.63
2023-03-13T08:56:37.364Z,9.90
2023-03-13T09:01:43.528Z,10.03
2023-03-13T09:06:48.952Z,10.13
2023-03-13T09:11:58.940Z,10.24
2023-03-13T09:17:06.953Z,10.30
2023-03-13T09:22:15.429Z,10.43
2023-03-13T09:27:28.436Z,10.49
2023-03-13T09:32:36.214Z,10.63
2023-03-13T09:37:42.584Z,10.64
2023-03-13T09:42:56.324Z,10.60
2023-03-13T09:48:09.085Z,10.48
2023-03-13T09:53:18.801Z,10.46
2023-03-13T09:58:32.929Z,10.42
2023-03-13T10:03:45.555Z,10.53
2023-03-13T10:08:52.947Z,10.68
2023-03-13T10:14:06.962Z,10.91
2023-03-13T10:19:22.217Z,11.22
2023-03-13T10:24:36.849Z,11.47
2023-03-13T10:29:47.162Z,11.46
2023-03-13T10:34:59.055Z,11.66
2023-03-13T10:40:18.518Z,11.71
2023-03-13T10:45:27.031Z,11.81
2023-03-13T10:50:38.802Z,12.02
2023-03-13T10:55:56.417Z,12.21
2023-03-13T11:01:24.592Z,12.44
2023-03-13T11:06:32.705Z,12.54
2023-03-13T11:11:47.843Z,12.60
2023-03-13T11:16:59.134Z,12.60
2023-03-13T11:22:19.569Z,12.65
2023-03-13T11:27:36.080Z,12.61
2023-03-13T11:32:46.643Z,12.53
2023-03-13T11:37:58.378Z,12.78
2023-03-13T11:43:41.079Z,12.43
2023-03-13T11:49:07.746Z,12.52
2023-03-13T11:54:33.230Z,12.81
2023-03-13T11:59:48.859Z,12.93
2023-03-13T12:05:00.665Z,12.90
2023-03-13T12:10:15.340Z,12.93
2023-03-13T12:15:30.184Z,12.99
2023-03-13T12:20:45.626Z,13.03
2023-03-13T12:25:58.610Z,13.05
2023-03-13T12:31:15.440Z,13.19
2023-03-13T12:36:29.532Z,13.43
2023-03-13T12:41:41.996Z,13.95
2023-03-13T12:46:50.015Z,14.38
2023-03-13T12:52:15.793Z,14.50
2023-03-13T12:57:37.477Z,14.38
2023-03-13T13:02:45.373Z,14.53
2023-03-13T13:07:59.800Z,14.48
2023-03-13T13:13:20.747Z,14.49
2023-03-13T13:18:30.578Z,14.79
2023-03-13T13:23:46.994Z,14.86
2023-03-13T13:28:52.185Z,15.00
2023-03-13T13:33:58.480Z,15.08
2023-03-13T13:39:33.005Z,15.17
2023-03-13T13:44:59.424Z,15.19
2023-03-13T13:50:05.572Z,15.21
2023-03-13T13:55:39.777Z,15.29
2023-03-13T14:00:48.736Z,15.27
2023-03-13T14:05:58.246Z,15.20
2023-03-13T14:11:33.234Z,15.17
2023-03-13T14:16:42.303Z,15.19
2023-03-13T14:21:49.457Z,15.24
2023-03-13T14:26:59.760Z,15.17
2023-03-13T14:32:04.706Z,15.25
2023-03-13T14:37:39.991Z,15.38
2023-03-13T14:42:52.485Z,15.25
2023-03-13T14:47:59.118Z,15.16
2023-03-13T14:53:18.958Z,15.25
2023-03-13T14:58:33.033Z,15.35
2023-03-13T15:03:38.708Z,15.51
2023-03-13T15:08:46.235Z,15.59
2023-03-13T15:13:55.213Z,15.55
2023-03-13T15:19:00.435Z,15.55
2023-03-13T15:24:15.565Z,15.50
2023-03-13T15:29:23.457Z,15.57
2023-03-13T15:34:31.595Z,15.55
2023-03-13T15:39:37.195Z,15.51
2023-03-13T15:44:45.351Z,15.58
2023-03-13T15:49:50.757Z,15.55
2023-03-13T15:54:56.015Z,15.51
2023-03-13T16:00:04.778Z,15.51
2023-03-13T16:05:10.971Z,15.53
2023-03-13T16:10:23.135Z,15.60
2023-03-13T16:15:32.421Z,15.51
2023-03-13T16:20:39.119Z,15.46
2023-03-13T16:25:44.680Z,15.38
2023-03-13T16:30:53.884Z,15.35
2023-03-13T16:36:01.846Z,15.20
2023-03-13T16:41:07.240Z,15.20
2023-03-13T16:46:20.628Z,15.11
2023-03-13T16:51:27.907Z,15.09
2023-03-13T16:56:34.384Z,15.07
2023-03-13T17:01:42.030Z,15.05
2023-03-13T17:06:47.952Z,15.03
2023-03-13T17:11:52.786Z,14.68
2023-03-13T17:17:00.421Z,14.44
2023-03-13T17:22:05.567Z,14.00
2023-03-13T17:27:15.170Z,13.92
2023-03-13T17:32:27.514Z,14.00
2023-03-13T17:37:32.883Z,14.08
2023-03-13T17:42:39.135Z,13.93
2023-03-13T17:47:50.486Z,13.99
2023-03-13T17:52:55.895Z,14.02
2023-03-13T17:58:00.954Z,14.12
2023-03-13T18:03:08.570Z,14.24
2023-03-13T18:08:14.494Z,14.15
2023-03-13T18:13:19.812Z,14.08
2023-03-13T18:18:30.512Z,14.04
2023-03-13T18:23:37.848Z,14.04
2023-03-13T18:28:47.106Z,14.00
2023-03-13T18:33:54.955Z,14.08
2023-03-13T18:39:00.551Z,14.07
2023-03-13T18:44:06.515Z,14.06
2023-03-13T18:49:21.374Z,14.16
2023-03-13T18:54:27.539Z,14.19
2023-03-13T18:59:33.937Z,14.22
2023-03-13T19:04:41.762Z,14.21
2023-03-13T19:09:47.700Z,14.24
2023-03-13T19:14:54.089Z,14.26
2023-03-13T19:20:01.803Z,14.27
2023-03-13T19:25:10.019Z,14.31
2023-03-13T19:30:22.516Z,14.27
2023-03-13T19:35:31.745Z,14.24
2023-03-13T19:40:38.350Z,14.03
2023-03-13T19:45:45.965Z,12.88
2023-03-13T19:51:03.493Z,12.85
2023-03-13T19:56:31.912Z,13.28
2023-03-13T20:01:43.962Z,13.19
2023-03-13T20:06:51.735Z,13.40
2023-03-13T20:11:57.934Z,13.01
2023-03-13T20:17:07.370Z,13.00
2023-03-13T20:22:16.245Z,12.85
2023-03-13T20:27:21.732Z,13.03
2023-03-13T20:32:33.327Z,13.03
2023-03-13T20:37:41.259Z,12.89
2023-03-13T20:42:46.420Z,12.74
2023-03-13T20:47:51.497Z,12.73
2023-03-13T20:52:58.979Z,12.67
2023-03-13T20:58:05.474Z,12.63
2023-03-13T21:03:14.479Z,12.61
2023-03-13T21:08:26.193Z,12.51
2023-03-13T21:13:31.264Z,12.58
2023-03-13T21:18:36.274Z,12.57
2023-03-13T21:23:45.014Z,12.43
2023-03-13T21:28:52.055Z,12.42
2023-03-13T21:33:58.306Z,12.24
2023-03-13T21:39:08.392Z,12.14
2023-03-13T21:44:13.964Z,12.14
2023-03-13T21:49:19.195Z,12.18
2023-03-13T21:54:27.417Z,12.08
2023-03-13T21:59:32.611Z,12.38
2023-03-13T22:04:39.789Z,11.94
2023-03-13T22:09:49.335Z,12.38
2023-03-13T22:15:02.491Z,12.61
2023-03-13T22:20:11.529Z,12.37
2023-03-13T22:25:23.146Z,12.38
2023-03-13T22:30:28.141Z,12.36
2023-03-13T22:35:35.969Z,12.25
2023-03-13T22:40:52.367Z,12.27
2023-03-13T22:45:57.366Z,12.14
2023-03-13T22:51:10.379Z,12.20
2023-03-13T22:56:18.252Z,12.31
2023-03-13T23:01:23.511Z,12.26
2023-03-13T23:06:30.218Z,12.36
2023-03-13T23:11:38.581Z,12.31
2023-03-13T23:16:44.848Z,12.04
2023-03-13T23:21:51.993Z,12.07
2023-03-13T23:26:59.684Z,12.11
2023-03-13T23:32:05.155Z,11.50
2023-03-13T23:37:12.234Z,12.01
2023-03-13T23:42:22.877Z,11.60
2023-03-13T23:47:30.034Z,10.89
2023-03-13T23:52:42.360Z,10.74
2023-03-13T23:57:53.889Z,10.86
